Terminal Aerodrome Forecast
Issued by NWS Sterling, VA

Current Version | Previous Version | Text Only | Print | Product List | Glossary Off
Versions: 1 2 3 4 5 6 7 8 9 10 11 12 13 14 15 16 17 18 19

000
FTUS41 KLWX 200540
TAFMRB
TAF
KMRB 200540Z 2006/2106 11011KT 2SM +RA BR OVC005
     FM200900 14005KT 3SM RA BR OVC008
     FM201100 22004KT 5SM -RA BR OVC008
     FM201300 23005KT P6SM OVC015
     FM201600 20008KT P6SM BKN250
     FM201800 18012KT P6SM -SHRA BKN050
     FM202300 22008KT P6SM -SHRA OVC050
     FM210100 24007KT P6SM OVC050=

USA.gov is the U.S. government's official web portal to all federal, state and local government web resources and services.